createdAt,value
2019-04-06T00:02:49.713Z,8.40
2019-04-06T00:06:52.793Z,8.40
2019-04-06T00:10:56.489Z,8.70
2019-04-06T00:14:59.675Z,8.80
2019-04-06T00:19:02.845Z,8.60
2019-04-06T00:23:05.862Z,8.60
2019-04-06T00:27:08.940Z,8.40
2019-04-06T00:31:36.696Z,8.40
2019-04-06T00:35:42.953Z,8.30
2019-04-06T00:39:46.782Z,8.40
2019-04-06T00:43:50.469Z,8.20
2019-04-06T00:47:56.983Z,8.10
2019-04-06T00:52:00.779Z,7.80
2019-04-06T00:56:07.224Z,7.70
2019-04-06T01:00:10.574Z,7.70
2019-04-06T01:04:14.263Z,7.50
2019-04-06T01:08:17.349Z,7.80
2019-04-06T01:12:20.493Z,7.90
2019-04-06T01:16:23.615Z,7.90
2019-04-06T01:20:26.619Z,8.00
2019-04-06T01:24:29.663Z,8.00
2019-04-06T01:28:38.819Z,8.10
2019-04-06T01:32:41.976Z,7.70
2019-04-06T01:36:45.638Z,7.60
2019-04-06T01:40:48.806Z,7.70
2019-04-06T01:44:51.817Z,7.80
2019-04-06T01:48:57.676Z,7.60
2019-04-06T01:53:00.758Z,7.70
2019-04-06T01:57:04.398Z,7.60
2019-04-06T02:01:33.140Z,7.50
2019-04-06T02:05:36.285Z,7.60
2019-04-06T02:09:40.133Z,7.50
2019-04-06T02:13:43.166Z,7.50
2019-04-06T02:17:46.264Z,7.50
2019-04-06T02:21:49.622Z,7.40
2019-04-06T02:25:54.362Z,7.40
2019-04-06T02:30:18.563Z,7.30
2019-04-06T02:34:48.412Z,7.40
2019-04-06T02:39:12.062Z,7.50
2019-04-06T02:43:18.119Z,7.50
2019-04-06T02:47:21.830Z,7.40
2019-04-06T02:51:25.354Z,7.40
2019-04-06T02:55:28.580Z,7.50
2019-04-06T02:59:31.676Z,7.50
2019-04-06T03:03:38.513Z,7.40
2019-04-06T03:07:42.101Z,7.30
2019-04-06T03:11:45.132Z,7.30
2019-04-06T03:15:48.941Z,7.60
2019-04-06T03:19:51.982Z,7.80
2019-04-06T03:23:55.393Z,7.80
2019-04-06T03:28:01.433Z,7.60
2019-04-06T03:32:04.419Z,7.50
2019-04-06T03:36:07.534Z,7.30
2019-04-06T03:40:11.314Z,7.30
2019-04-06T03:44:14.317Z,7.50
2019-04-06T03:48:17.513Z,7.30
2019-04-06T03:52:20.482Z,7.30
2019-04-06T03:56:23.456Z,7.20
2019-04-06T04:00:26.726Z,7.20
2019-04-06T04:04:29.871Z,7.30
2019-04-06T04:08:33.016Z,7.20
2019-04-06T04:12:36.153Z,7.10
2019-04-06T04:16:39.663Z,7.10
2019-04-06T04:20:42.867Z,7.00
2019-04-06T04:24:55.399Z,7.10
2019-04-06T04:29:08.497Z,7.30
2019-04-06T04:33:12.640Z,7.30
2019-04-06T04:37:15.680Z,7.20
2019-04-06T04:41:18.633Z,7.20
2019-04-06T04:45:21.513Z,7.00
2019-04-06T04:49:24.716Z,7.00
2019-04-06T04:53:34.261Z,7.00
2019-04-06T04:57:41.225Z,7.20
2019-04-06T05:01:42.280Z,7.30
2019-04-06T05:05:51.557Z,7.50
2019-04-06T05:09:57.525Z,7.50
2019-04-06T05:14:55.084Z,7.50
2019-04-06T05:18:58.094Z,7.50
2019-04-06T05:23:17.864Z,7.60
2019-04-06T05:27:59.061Z,7.70
2019-04-06T05:32:26.422Z,7.80
2019-04-06T05:36:42.026Z,7.90
2019-04-06T05:41:18.329Z,8.00
2019-04-06T05:45:52.135Z,8.10
2019-04-06T05:54:05.440Z,8.30
2019-04-06T05:58:18.003Z,8.30
2019-04-06T06:02:31.265Z,8.40
2019-04-06T06:06:34.298Z,8.50
2019-04-06T06:10:38.592Z,8.50
2019-04-06T06:14:41.592Z,8.70
2019-04-06T06:18:45.652Z,8.80
2019-04-06T06:22:48.889Z,8.90
2019-04-06T06:26:52.307Z,8.90
2019-04-06T06:30:55.293Z,9.00
2019-04-06T06:35:08.403Z,9.10
2019-04-06T06:39:11.362Z,9.20
2019-04-06T06:43:14.438Z,9.40
2019-04-06T06:47:17.386Z,9.50
2019-04-06T06:51:20.409Z,9.70
2019-04-06T06:55:23.631Z,9.70
2019-04-06T06:59:27.235Z,9.90
2019-04-06T07:03:30.329Z,10.20
2019-04-06T07:07:33.389Z,10.30
2019-04-06T07:11:36.508Z,10.50
2019-04-06T07:15:45.529Z,10.60
2019-04-06T07:19:48.581Z,10.60
2019-04-06T07:23:51.618Z,10.60
2019-04-06T07:27:55.746Z,10.70
2019-04-06T07:31:59.065Z,10.70
2019-04-06T07:36:02.172Z,10.80
2019-04-06T07:40:06.491Z,10.80
2019-04-06T07:44:09.859Z,10.90
2019-04-06T07:48:12.963Z,11.00
2019-04-06T07:52:16.588Z,11.10
2019-04-06T07:56:22.763Z,11.20
2019-04-06T08:00:25.762Z,11.30
2019-04-06T08:04:29.072Z,11.40
2019-04-06T08:08:32.397Z,11.50
2019-04-06T08:12:35.654Z,11.60
2019-04-06T08:16:41.882Z,11.70
2019-04-06T08:20:45.044Z,11.80
2019-04-06T08:24:48.112Z,11.90
2019-04-06T08:29:00.249Z,11.90
2019-04-06T08:32:55.998Z,12.00
2019-04-06T08:37:00.458Z,12.20
2019-04-06T08:41:04.364Z,12.40
2019-04-06T08:45:10.777Z,12.40
2019-04-06T08:49:13.917Z,12.50
2019-04-06T08:53:16.933Z,12.70
2019-04-06T08:57:22.292Z,12.80
2019-04-06T09:01:24.873Z,12.90
2019-04-06T09:05:28.017Z,13.10
2019-04-06T09:09:30.997Z,13.20
2019-04-06T09:13:34.967Z,13.40
2019-04-06T09:17:38.145Z,13.50
2019-04-06T09:21:41.369Z,13.70
2019-04-06T09:25:44.741Z,13.90
2019-04-06T09:29:48.081Z,14.10
2019-04-06T09:33:51.181Z,14.20
2019-04-06T09:37:54.457Z,14.40
2019-04-06T09:42:00.744Z,14.60
2019-04-06T09:46:35.408Z,14.90
2019-04-06T09:51:00.663Z,15.10
2019-04-06T09:55:11.064Z,15.30
2019-04-06T09:59:41.834Z,15.80
2019-04-06T10:04:04.314Z,16.20
2019-04-06T10:08:35.772Z,16.90
2019-04-06T10:13:13.539Z,17.90
2019-04-06T10:17:38.754Z,18.90
2019-04-06T10:22:16.578Z,19.80
2019-04-06T10:26:48.330Z,20.60
2019-04-06T10:31:11.416Z,21.20
2019-04-06T10:35:32.700Z,21.80
2019-04-06T10:39:47.340Z,21.90
2019-04-06T10:44:08.272Z,21.40
2019-04-06T10:48:29.504Z,21.40
2019-04-06T10:52:47.982Z,21.40
2019-04-06T10:57:15.866Z,21.50
2019-04-06T11:01:37.368Z,21.40
2019-04-06T11:05:58.516Z,21.70
2019-04-06T11:10:27.090Z,21.90
2019-04-06T11:14:55.792Z,22.40
2019-04-06T11:19:20.189Z,22.90
2019-04-06T11:23:57.645Z,22.50
2019-04-06T11:28:28.901Z,22.60
2019-04-06T11:33:10.213Z,22.80
2019-04-06T11:37:38.847Z,23.50
2019-04-06T11:42:19.079Z,23.70
2019-04-06T11:46:48.237Z,23.80
2019-04-06T11:50:59.777Z,24.00
2019-04-06T11:55:27.857Z,24.30
2019-04-06T12:00:08.442Z,24.30
2019-04-06T12:04:29.741Z,24.50
2019-04-06T12:08:52.257Z,24.50
2019-04-06T12:13:33.173Z,24.80
2019-04-06T12:18:11.205Z,24.90
2019-04-06T12:22:33.756Z,24.90
2019-04-06T12:26:50.649Z,25.20
2019-04-06T12:31:15.558Z,25.60
2019-04-06T12:35:40.842Z,25.60
2019-04-06T12:39:56.611Z,25.40
2019-04-06T12:44:45.013Z,25.50
2019-04-06T12:53:56.899Z,26.00
2019-04-06T13:03:50.794Z,26.40
2019-04-06T13:12:45.154Z,26.30
2019-04-06T13:17:13.473Z,26.30
2019-04-06T13:21:40.249Z,26.20
2019-04-06T13:26:08.951Z,26.00
2019-04-06T13:30:30.520Z,25.90
2019-04-06T13:34:56.084Z,25.70
2019-04-06T13:39:15.090Z,26.00
2019-04-06T13:43:40.228Z,26.30
2019-04-06T13:48:14.646Z,26.70
2019-04-06T13:53:01.745Z,26.80
2019-04-06T13:57:36.568Z,25.90
2019-04-06T14:06:12.958Z,27.30
2019-04-06T14:22:06.289Z,26.50
2019-04-06T14:31:52.752Z,27.50
2019-04-06T14:41:22.082Z,26.70
2019-04-06T14:45:47.612Z,27.50
2019-04-06T14:49:57.986Z,28.00
2019-04-06T14:54:22.499Z,27.30
2019-04-06T14:58:57.326Z,26.50
2019-04-06T15:03:20.557Z,27.30
2019-04-06T15:07:52.351Z,27.30
2019-04-06T15:12:14.803Z,27.10
2019-04-06T15:16:40.184Z,26.70
2019-04-06T15:21:06.385Z,26.10
2019-04-06T15:25:28.901Z,25.50
2019-04-06T15:29:51.658Z,24.80
2019-04-06T15:34:23.030Z,24.50
2019-04-06T15:38:35.519Z,23.90
2019-04-06T15:42:57.200Z,23.50
2019-04-06T15:47:25.665Z,23.20
2019-04-06T15:51:43.770Z,23.00
2019-04-06T15:56:04.978Z,22.80
2019-04-06T16:00:36.873Z,22.50
2019-04-06T16:04:59.829Z,22.30
2019-04-06T16:09:29.474Z,22.10
2019-04-06T16:14:03.937Z,21.80
2019-04-06T16:18:25.204Z,21.50
2019-04-06T16:23:00.248Z,21.30
2019-04-06T16:27:24.406Z,21.20
2019-04-06T16:31:42.297Z,21.20
2019-04-06T16:36:23.339Z,20.90
2019-04-06T16:40:48.960Z,20.70
2019-04-06T16:45:04.630Z,20.50
2019-04-06T16:49:17.357Z,20.50
2019-04-06T16:53:32.863Z,20.30
2019-04-06T16:57:55.310Z,20.10
2019-04-06T17:02:22.176Z,19.80
2019-04-06T17:06:36.410Z,19.70
2019-04-06T17:10:52.318Z,19.70
2019-04-06T17:15:23.275Z,19.60
2019-04-06T17:20:03.913Z,19.50
2019-04-06T17:24:29.195Z,19.50
2019-04-06T17:28:54.481Z,19.50
2019-04-06T17:33:11.767Z,19.50
2019-04-06T17:37:39.499Z,19.50
2019-04-06T17:41:55.390Z,19.50
2019-04-06T17:46:16.714Z,19.40
2019-04-06T17:50:37.921Z,19.30
2019-04-06T17:55:00.344Z,19.10
2019-04-06T17:59:32.429Z,18.80
2019-04-06T18:04:06.700Z,18.70
2019-04-06T18:08:18.091Z,18.70
2019-04-06T18:12:28.077Z,18.40
2019-04-06T18:16:35.349Z,18.20
2019-04-06T18:20:38.445Z,18.10
2019-04-06T18:24:41.603Z,18.00
2019-04-06T18:28:45.090Z,18.00
2019-04-06T18:33:01.245Z,17.80
2019-04-06T18:37:29.509Z,17.70
2019-04-06T18:41:32.992Z,17.80
2019-04-06T18:45:35.988Z,17.90
2019-04-06T18:49:39.010Z,17.90
2019-04-06T18:53:42.549Z,17.80
2019-04-06T18:57:45.786Z,17.70
2019-04-06T19:01:48.777Z,17.60
2019-04-06T19:05:52.132Z,17.40
2019-04-06T19:09:58.330Z,17.50
2019-04-06T19:14:01.415Z,17.50
2019-04-06T19:18:10.235Z,17.40
2019-04-06T19:22:13.567Z,17.00
2019-04-06T19:26:17.136Z,16.70
2019-04-06T19:30:21.784Z,16.80
2019-04-06T19:34:25.007Z,16.70
2019-04-06T19:38:28.145Z,16.30
2019-04-06T19:42:31.132Z,16.40
2019-04-06T19:46:34.153Z,16.20
2019-04-06T19:50:40.686Z,16.00
2019-04-06T19:54:44.217Z,16.30
2019-04-06T19:58:47.280Z,16.30
2019-04-06T20:02:50.459Z,16.30
2019-04-06T20:06:56.916Z,16.20
2019-04-06T20:11:00.008Z,16.10
2019-04-06T20:15:06.521Z,15.90
2019-04-06T20:19:09.914Z,15.80
2019-04-06T20:23:12.941Z,15.70
2019-04-06T20:27:16.082Z,15.50
2019-04-06T20:31:19.612Z,15.60
2019-04-06T20:35:22.819Z,15.30
2019-04-06T20:39:29.618Z,15.30
2019-04-06T20:43:33.048Z,15.20
2019-04-06T20:47:39.574Z,15.10
2019-04-06T20:51:45.638Z,14.90
2019-04-06T20:55:51.909Z,15.00
2019-04-06T20:59:55.056Z,15.30
2019-04-06T21:04:02.284Z,15.40
2019-04-06T21:08:03.170Z,15.50
2019-04-06T21:12:06.825Z,15.40
2019-04-06T21:16:12.773Z,15.30
2019-04-06T21:20:15.924Z,15.40
2019-04-06T21:24:19.017Z,15.40
2019-04-06T21:28:22.097Z,15.20
2019-04-06T21:32:25.095Z,15.20
2019-04-06T21:36:28.092Z,15.20
2019-04-06T21:40:33.144Z,15.20
2019-04-06T21:44:36.131Z,15.20
2019-04-06T21:48:39.499Z,15.00
2019-04-06T21:52:42.997Z,14.90
2019-04-06T21:56:45.966Z,14.80
2019-04-06T22:00:57.907Z,14.60
2019-04-06T22:05:01.306Z,14.50
2019-04-06T22:09:09.430Z,14.40
2019-04-06T22:13:13.624Z,14.40
2019-04-06T22:17:16.636Z,14.40
2019-04-06T22:21:19.658Z,14.30
2019-04-06T22:25:22.683Z,14.40
2019-04-06T22:29:26.057Z,14.40
2019-04-06T22:33:32.273Z,14.30
2019-04-06T22:37:35.742Z,14.30
2019-04-06T22:41:39.001Z,14.10
2019-04-06T22:45:42.492Z,14.10
2019-04-06T22:49:51.814Z,14.10
2019-04-06T22:53:54.855Z,14.00
2019-04-06T22:58:03.896Z,14.00
2019-04-06T23:02:06.944Z,14.00
2019-04-06T23:06:13.066Z,13.90
2019-04-06T23:10:16.081Z,13.90
2019-04-06T23:14:19.235Z,13.80
2019-04-06T23:18:23.029Z,13.70
2019-04-06T23:22:26.402Z,13.70
2019-04-06T23:26:38.807Z,13.70
2019-04-06T23:30:43.356Z,13.70
2019-04-06T23:34:56.965Z,13.60
2019-04-06T23:38:51.228Z,13.70
2019-04-06T23:42:54.881Z,13.60
2019-04-06T23:46:58.752Z,13.30
2019-04-06T23:51:02.000Z,13.20
2019-04-06T23:55:07.076Z,13.40
2019-04-06T23:59:10.070Z,13.30
